createdAt,value
2023-02-23T00:02:15.072Z,-1.50
2023-02-23T00:05:18.210Z,-1.66
2023-02-23T00:08:20.728Z,-1.54
2023-02-23T00:11:23.858Z,-1.36
2023-02-23T00:14:27.888Z,-1.55
2023-02-23T00:17:31.628Z,-1.64
2023-02-23T00:20:34.684Z,-1.62
2023-02-23T00:23:38.860Z,-1.62
2023-02-23T00:26:45.553Z,-1.47
2023-02-23T00:29:49.900Z,-1.45
2023-02-23T00:32:52.618Z,-1.57
2023-02-23T00:35:55.665Z,-1.61
2023-02-23T00:39:00.628Z,-1.51
2023-02-23T00:42:03.315Z,-1.68
2023-02-23T00:45:11.107Z,-1.67
2023-02-23T00:48:13.537Z,-1.57
2023-02-23T00:51:17.647Z,-1.55
2023-02-23T00:54:22.197Z,-1.50
2023-02-23T00:57:24.560Z,-1.54
2023-02-23T01:00:26.897Z,-1.56
2023-02-23T01:03:30.925Z,-1.66
2023-02-23T01:06:33.445Z,-1.66
2023-02-23T01:09:35.828Z,-1.67
2023-02-23T01:12:40.080Z,-1.71
2023-02-23T01:15:43.882Z,-1.66
2023-02-23T01:18:46.555Z,-1.73
2023-02-23T01:21:49.005Z,-1.63
2023-02-23T01:24:52.998Z,-1.76
2023-02-23T01:27:55.937Z,-1.84
2023-02-23T01:30:58.328Z,-1.74
2023-02-23T01:34:02.126Z,-1.73
2023-02-23T01:37:06.094Z,-1.81
2023-02-23T01:40:28.788Z,-1.94
2023-02-23T01:43:31.289Z,-1.93
2023-02-23T01:46:41.707Z,-1.99
2023-02-23T01:49:44.089Z,-1.73
2023-02-23T01:52:48.352Z,-2.01
2023-02-23T01:55:55.170Z,-1.87
2023-02-23T01:59:00.334Z,-1.99
2023-02-23T02:02:05.508Z,-2.05
2023-02-23T02:05:13.738Z,-1.96
2023-02-23T02:08:16.601Z,-1.92
2023-02-23T02:11:36.404Z,-2.14
2023-02-23T02:14:39.150Z,-2.00
2023-02-23T02:18:09.680Z,-2.14
2023-02-23T02:21:31.827Z,-1.98
2023-02-23T02:24:52.598Z,-2.07
2023-02-23T02:28:22.360Z,-2.10
2023-02-23T02:31:49.675Z,-2.23
2023-02-23T02:35:10.702Z,-2.25
2023-02-23T02:38:55.886Z,-2.25
2023-02-23T02:42:04.060Z,-2.19
2023-02-23T02:45:14.943Z,-2.27
2023-02-23T02:48:42.377Z,-2.23
2023-02-23T02:52:08.886Z,-2.13
2023-02-23T02:55:24.957Z,-2.26
2023-02-23T02:58:27.759Z,-2.31
2023-02-23T03:01:50.006Z,-2.14
2023-02-23T03:05:10.859Z,-2.13
2023-02-23T03:08:55.529Z,-2.28
2023-02-23T03:12:27.392Z,-2.32
2023-02-23T03:15:54.274Z,-2.36
2023-02-23T03:19:50.205Z,-2.34
2023-02-23T03:23:21.386Z,-2.37
2023-02-23T03:26:58.892Z,-2.48
2023-02-23T03:30:28.708Z,-2.28
2023-02-23T03:33:58.900Z,-2.42
2023-02-23T03:38:00.685Z,-2.16
2023-02-23T03:41:23.580Z,-2.39
2023-02-23T03:44:50.332Z,-2.31
2023-02-23T03:48:12.953Z,-2.37
2023-02-23T03:51:34.295Z,-2.39
2023-02-23T03:55:00.535Z,-2.21
2023-02-23T03:58:26.283Z,-2.26
2023-02-23T04:01:47.334Z,-2.23
2023-02-23T04:05:09.196Z,-2.40
2023-02-23T04:08:33.718Z,-2.28
2023-02-23T04:12:08.213Z,-2.15
2023-02-23T04:15:14.646Z,-2.26
2023-02-23T04:18:25.785Z,-2.21
2023-02-23T04:21:28.194Z,-2.09
2023-02-23T04:24:30.647Z,-2.18
2023-02-23T04:27:33.078Z,-2.49
2023-02-23T04:30:35.712Z,-2.36
2023-02-23T04:33:38.003Z,-2.31
2023-02-23T04:36:40.962Z,-2.28
2023-02-23T04:39:48.545Z,-2.50
2023-02-23T04:42:51.367Z,-2.34
2023-02-23T04:45:53.706Z,-2.23
2023-02-23T04:48:56.028Z,-2.44
2023-02-23T04:51:58.272Z,-2.37
2023-02-23T04:55:00.631Z,-2.63
2023-02-23T04:58:03.427Z,-2.50
2023-02-23T05:01:10.039Z,-2.27
2023-02-23T05:04:12.423Z,-2.42
2023-02-23T05:07:14.736Z,-2.60
2023-02-23T05:10:17.475Z,-2.27
2023-02-23T05:13:20.752Z,-2.30
2023-02-23T05:16:23.678Z,-2.53
2023-02-23T05:19:26.033Z,-2.36
2023-02-23T05:22:28.304Z,-2.34
2023-02-23T05:25:30.680Z,-2.36
2023-02-23T05:28:34.689Z,-2.31
2023-02-23T05:31:37.593Z,-2.22
2023-02-23T05:34:40.067Z,-2.31
2023-02-23T05:37:42.665Z,-2.32
2023-02-23T05:40:45.214Z,-2.24
2023-02-23T05:43:51.342Z,-2.37
2023-02-23T05:46:54.131Z,-2.36
2023-02-23T05:49:56.654Z,-2.29
2023-02-23T05:52:58.934Z,-2.14
2023-02-23T05:56:02.663Z,-2.28
2023-02-23T05:59:05.100Z,-2.16
2023-02-23T06:02:07.469Z,-2.18
2023-02-23T06:05:10.861Z,-2.36
2023-02-23T06:08:13.811Z,-2.18
2023-02-23T06:11:16.386Z,-2.37
2023-02-23T06:14:18.994Z,-2.34
2023-02-23T06:17:21.590Z,-2.25
2023-02-23T06:20:24.072Z,-2.40
2023-02-23T06:23:26.653Z,-2.19
2023-02-23T06:26:29.766Z,-2.22
2023-02-23T06:29:32.036Z,-2.37
2023-02-23T06:32:34.587Z,-2.19
2023-02-23T06:35:40.097Z,-2.03
2023-02-23T06:38:43.007Z,-1.79
2023-02-23T06:41:45.676Z,-1.70
2023-02-23T06:44:48.247Z,-1.81
2023-02-23T06:47:50.774Z,-1.63
2023-02-23T06:50:53.528Z,-1.99
2023-02-23T06:53:56.186Z,-1.82
2023-02-23T06:56:59.266Z,-1.64
2023-02-23T07:00:02.121Z,-1.47
2023-02-23T07:03:04.798Z,-1.43
2023-02-23T07:06:07.346Z,-1.30
2023-02-23T07:09:09.929Z,-1.30
2023-02-23T07:12:12.350Z,-1.30
2023-02-23T07:15:17.885Z,-1.61
2023-02-23T07:18:20.236Z,-1.21
2023-02-23T07:21:23.155Z,-1.30
2023-02-23T07:24:27.580Z,-1.02
2023-02-23T07:27:30.420Z,-1.11
2023-02-23T07:30:32.962Z,-1.05
2023-02-23T07:33:36.326Z,-1.06
2023-02-23T07:36:39.476Z,-0.79
2023-02-23T07:39:42.064Z,-0.69
2023-02-23T07:42:44.766Z,-0.76
2023-02-23T07:45:47.399Z,-0.86
2023-02-23T07:48:49.863Z,-0.73
2023-02-23T07:51:52.749Z,-0.71
2023-02-23T07:54:58.279Z,-0.50
2023-02-23T07:58:00.561Z,-0.88
2023-02-23T08:01:02.988Z,-0.67
2023-02-23T08:04:05.753Z,-0.47
2023-02-23T08:07:08.789Z,-0.42
2023-02-23T08:10:11.925Z,-0.35
2023-02-23T08:13:14.313Z,-0.59
2023-02-23T08:16:18.677Z,-0.45
2023-02-23T08:19:22.995Z,-0.06
2023-02-23T08:22:25.341Z,-0.10
2023-02-23T08:25:27.729Z,0.10
2023-02-23T08:28:30.725Z,0.05
2023-02-23T08:31:33.266Z,0.10
2023-02-23T08:34:43.452Z,0.16
2023-02-23T08:37:46.157Z,-0.00
2023-02-23T08:40:48.642Z,0.13
2023-02-23T08:43:51.145Z,0.20
2023-02-23T08:46:55.447Z,0.28
2023-02-23T08:49:57.902Z,0.53
2023-02-23T08:53:00.314Z,0.62
2023-02-23T08:56:06.199Z,0.63
2023-02-23T08:59:09.660Z,0.84
2023-02-23T09:02:13.818Z,0.66
2023-02-23T09:05:16.672Z,0.61
2023-02-23T09:08:19.876Z,0.69
2023-02-23T09:11:23.077Z,0.88
2023-02-23T09:14:25.610Z,0.71
2023-02-23T09:17:28.104Z,1.00
2023-02-23T09:20:30.590Z,1.11
2023-02-23T09:23:34.024Z,1.15
2023-02-23T09:26:40.179Z,1.17
2023-02-23T09:29:43.657Z,1.36
2023-02-23T09:32:46.179Z,1.51
2023-02-23T09:35:48.655Z,1.62
2023-02-23T09:38:55.604Z,1.85
2023-02-23T09:42:09.786Z,2.11
2023-02-23T09:45:12.139Z,2.09
2023-02-23T09:48:17.917Z,2.01
2023-02-23T09:51:21.626Z,1.86
2023-02-23T09:54:24.968Z,2.17
2023-02-23T09:57:39.722Z,2.25
2023-02-23T10:00:44.980Z,2.39
2023-02-23T10:04:07.145Z,2.57
2023-02-23T10:07:34.852Z,2.71
2023-02-23T10:10:37.234Z,2.42
2023-02-23T10:14:00.763Z,2.49
2023-02-23T10:17:45.462Z,2.52
2023-02-23T10:21:20.049Z,2.52
2023-02-23T10:24:25.472Z,2.87
2023-02-23T10:27:33.553Z,2.61
2023-02-23T10:30:36.501Z,2.61
2023-02-23T10:33:42.370Z,2.76
2023-02-23T10:37:07.298Z,2.75
2023-02-23T10:40:22.216Z,2.71
2023-02-23T10:43:24.727Z,2.92
2023-02-23T10:46:33.320Z,3.12
2023-02-23T10:49:47.539Z,3.02
2023-02-23T10:52:52.261Z,2.81
2023-02-23T10:56:10.901Z,3.01
2023-02-23T10:59:20.594Z,3.11
2023-02-23T11:02:25.817Z,3.36
2023-02-23T11:05:33.134Z,3.38
2023-02-23T11:08:37.666Z,3.23
2023-02-23T11:11:40.069Z,3.18
2023-02-23T11:14:42.699Z,3.27
2023-02-23T11:17:45.119Z,3.49
2023-02-23T11:20:49.066Z,3.50
2023-02-23T11:23:54.142Z,3.58
2023-02-23T11:27:00.438Z,3.65
2023-02-23T11:30:07.048Z,3.71
2023-02-23T11:33:16.980Z,3.67
2023-02-23T11:36:25.202Z,3.84
2023-02-23T11:39:27.861Z,3.65
2023-02-23T11:42:33.512Z,3.90
2023-02-23T11:45:47.215Z,3.89
2023-02-23T11:48:57.090Z,4.15
2023-02-23T11:51:59.645Z,4.13
2023-02-23T11:55:06.622Z,3.93
2023-02-23T11:58:19.460Z,4.16
2023-02-23T12:01:25.076Z,4.25
2023-02-23T12:04:38.435Z,4.40
2023-02-23T12:07:46.803Z,4.29
2023-02-23T12:10:52.780Z,4.32
2023-02-23T12:14:02.917Z,4.16
2023-02-23T12:17:13.929Z,4.17
2023-02-23T12:20:22.930Z,4.26
2023-02-23T12:23:27.861Z,4.47
2023-02-23T12:26:31.911Z,4.66
2023-02-23T12:29:34.307Z,4.60
2023-02-23T12:33:03.529Z,4.51
2023-02-23T12:36:21.424Z,4.72
2023-02-23T12:39:36.834Z,4.79
2023-02-23T12:42:42.248Z,4.73
2023-02-23T12:46:15.592Z,4.88
2023-02-23T12:49:40.207Z,5.04
2023-02-23T12:52:57.717Z,4.84
2023-02-23T12:56:21.874Z,4.92
2023-02-23T12:59:42.295Z,5.03
2023-02-23T13:02:52.948Z,4.97
2023-02-23T13:06:25.738Z,5.09
2023-02-23T13:09:46.175Z,5.07
2023-02-23T13:12:58.563Z,5.07
2023-02-23T13:16:14.781Z,5.11
2023-02-23T13:19:42.509Z,4.91
2023-02-23T13:23:11.518Z,4.90
2023-02-23T13:26:24.871Z,4.67
2023-02-23T13:29:44.183Z,5.03
2023-02-23T13:32:46.908Z,4.92
2023-02-23T13:35:49.293Z,4.79
2023-02-23T13:39:24.310Z,4.77
2023-02-23T13:42:42.892Z,4.62
2023-02-23T13:45:54.331Z,4.64
2023-02-23T13:49:17.199Z,4.63
2023-02-23T13:52:41.136Z,4.68
2023-02-23T13:55:51.368Z,4.77
2023-02-23T13:59:01.433Z,4.65
2023-02-23T14:03:26.421Z,4.71
2023-02-23T14:06:31.167Z,4.50
2023-02-23T14:09:37.338Z,4.76
2023-02-23T14:12:44.423Z,4.59
2023-02-23T14:15:50.069Z,4.67
2023-02-23T14:18:57.989Z,4.75
2023-02-23T14:22:05.317Z,4.64
2023-02-23T14:25:35.482Z,4.79
2023-02-23T14:28:43.500Z,4.59
2023-02-23T14:32:00.931Z,4.41
2023-02-23T14:35:03.382Z,4.44
2023-02-23T14:38:08.485Z,4.39
2023-02-23T14:41:12.206Z,4.26
2023-02-23T14:44:29.884Z,4.61
2023-02-23T14:47:42.526Z,4.36
2023-02-23T14:50:44.938Z,4.23
2023-02-23T14:53:47.379Z,4.42
2023-02-23T14:56:52.635Z,4.26
2023-02-23T15:00:00.536Z,4.27
2023-02-23T15:03:13.185Z,4.22
2023-02-23T15:06:15.467Z,4.14
2023-02-23T15:09:23.459Z,4.06
2023-02-23T15:12:37.734Z,3.99
2023-02-23T15:15:46.565Z,3.97
2023-02-23T15:18:51.373Z,3.91
2023-02-23T15:21:55.217Z,3.88
2023-02-23T15:25:00.452Z,3.73
2023-02-23T15:28:21.598Z,3.85
2023-02-23T15:31:30.821Z,3.78
2023-02-23T15:34:33.484Z,3.69
2023-02-23T15:37:41.690Z,3.79
2023-02-23T15:40:44.328Z,3.75
2023-02-23T15:43:46.788Z,3.72
2023-02-23T15:46:58.062Z,3.74
2023-02-23T15:50:36.590Z,3.66
2023-02-23T15:53:40.651Z,3.66
2023-02-23T15:56:47.012Z,3.56
2023-02-23T15:59:50.310Z,3.54
2023-02-23T16:02:53.069Z,3.44
2023-02-23T16:06:07.290Z,3.48
2023-02-23T16:09:24.190Z,3.38
2023-02-23T16:12:33.009Z,3.51
2023-02-23T16:15:36.644Z,3.46
2023-02-23T16:18:40.575Z,3.59
2023-02-23T16:21:43.465Z,3.45
2023-02-23T16:24:46.081Z,3.70
2023-02-23T16:27:56.222Z,3.50
2023-02-23T16:30:58.692Z,3.55
2023-02-23T16:34:01.788Z,3.43
2023-02-23T16:37:15.780Z,3.36
2023-02-23T16:40:18.733Z,3.26
2023-02-23T16:43:21.792Z,3.21
2023-02-23T16:46:26.239Z,3.36
2023-02-23T16:49:30.072Z,3.25
2023-02-23T16:52:33.247Z,3.34
2023-02-23T16:55:39.944Z,3.30
2023-02-23T16:58:46.878Z,3.36
2023-02-23T17:01:50.124Z,3.38
2023-02-23T17:04:58.951Z,3.39
2023-02-23T17:08:01.477Z,3.37
2023-02-23T17:11:04.888Z,3.42
2023-02-23T17:14:07.570Z,3.35
2023-02-23T17:17:15.721Z,3.25
2023-02-23T17:20:21.609Z,3.44
2023-02-23T17:23:28.624Z,3.48
2023-02-23T17:26:30.937Z,3.67
2023-02-23T17:29:33.374Z,3.51
2023-02-23T17:32:36.458Z,3.25
2023-02-23T17:35:39.116Z,3.54
2023-02-23T17:38:44.933Z,3.45
2023-02-23T17:41:47.700Z,3.55
2023-02-23T17:44:50.119Z,3.42
2023-02-23T17:47:52.937Z,3.44
2023-02-23T17:51:03.640Z,3.38
2023-02-23T17:54:06.467Z,3.35
2023-02-23T17:57:08.814Z,3.32
2023-02-23T18:00:13.022Z,3.45
2023-02-23T18:03:16.967Z,3.34
2023-02-23T18:06:20.104Z,3.22
2023-02-23T18:09:22.513Z,3.25
2023-02-23T18:12:24.902Z,3.27
2023-02-23T18:15:27.343Z,3.15
2023-02-23T18:18:29.884Z,3.20
2023-02-23T18:21:34.727Z,3.25
2023-02-23T18:24:38.375Z,3.24
2023-02-23T18:27:40.695Z,3.17
2023-02-23T18:30:43.284Z,3.18
2023-02-23T18:33:49.714Z,3.19
2023-02-23T18:36:52.118Z,3.23
2023-02-23T18:39:57.086Z,3.20
2023-02-23T18:42:59.782Z,3.12
2023-02-23T18:46:06.578Z,3.22
2023-02-23T18:49:13.904Z,3.09
2023-02-23T18:52:16.527Z,3.21
2023-02-23T18:55:19.986Z,3.21
2023-02-23T18:58:22.493Z,3.19
2023-02-23T19:01:27.362Z,3.15
2023-02-23T19:04:29.841Z,3.29
2023-02-23T19:07:32.715Z,3.15
2023-02-23T19:10:36.498Z,3.17
2023-02-23T19:13:38.891Z,3.15
2023-02-23T19:16:41.535Z,3.13
2023-02-23T19:19:43.884Z,3.28
2023-02-23T19:22:46.640Z,3.32
2023-02-23T19:25:50.311Z,3.35
2023-02-23T19:28:53.158Z,3.41
2023-02-23T19:31:55.814Z,3.49
2023-02-23T19:34:58.252Z,3.44
2023-02-23T19:38:02.599Z,3.43
2023-02-23T19:41:08.172Z,3.50
2023-02-23T19:44:10.926Z,3.34
2023-02-23T19:47:13.366Z,3.21
2023-02-23T19:50:19.139Z,3.43
2023-02-23T19:53:21.697Z,3.63
2023-02-23T19:56:28.338Z,3.49
2023-02-23T19:59:30.880Z,3.39
2023-02-23T20:02:33.609Z,3.54
2023-02-23T20:05:42.828Z,3.53
2023-02-23T20:08:47.179Z,3.52
2023-02-23T20:11:49.490Z,3.51
2023-02-23T20:14:51.942Z,3.55
2023-02-23T20:17:54.267Z,3.67
2023-02-23T20:20:56.732Z,3.72
2023-02-23T20:24:01.000Z,3.60
2023-02-23T20:27:03.437Z,3.69
2023-02-23T20:30:06.927Z,3.75
2023-02-23T20:33:11.920Z,3.68
2023-02-23T20:36:14.291Z,3.69
2023-02-23T20:39:17.018Z,3.76
2023-02-23T20:42:19.624Z,3.79
2023-02-23T20:45:24.044Z,3.81
2023-02-23T20:48:27.464Z,3.82
2023-02-23T20:51:29.944Z,3.93
2023-02-23T20:54:33.422Z,3.94
2023-02-23T20:57:36.320Z,4.29
2023-02-23T21:00:39.065Z,4.11
2023-02-23T21:03:41.506Z,4.19
2023-02-23T21:06:44.472Z,4.15
2023-02-23T21:09:46.992Z,4.03
2023-02-23T21:12:49.646Z,4.18
2023-02-23T21:16:01.055Z,4.22
2023-02-23T21:19:04.429Z,4.40
2023-02-23T21:22:07.221Z,4.50
2023-02-23T21:25:10.993Z,4.17
2023-02-23T21:28:14.958Z,4.04
2023-02-23T21:31:17.771Z,3.98
2023-02-23T21:34:20.950Z,4.15
2023-02-23T21:37:23.451Z,4.13
2023-02-23T21:40:25.932Z,4.02
2023-02-23T21:43:28.279Z,4.02
2023-02-23T21:46:30.582Z,3.81
2023-02-23T21:49:32.918Z,3.78
2023-02-23T21:52:35.304Z,3.90
2023-02-23T21:55:41.741Z,3.73
2023-02-23T21:58:49.292Z,3.94
2023-02-23T22:01:51.882Z,3.92
2023-02-23T22:04:54.581Z,4.04
2023-02-23T22:07:57.088Z,3.93
2023-02-23T22:10:59.429Z,4.10
2023-02-23T22:14:01.836Z,4.10
2023-02-23T22:17:06.515Z,4.30
2023-02-23T22:20:09.761Z,3.93
2023-02-23T22:23:12.249Z,4.23
2023-02-23T22:26:15.316Z,4.23
2023-02-23T22:29:17.694Z,4.24
2023-02-23T22:32:20.428Z,4.13
2023-02-23T22:35:22.833Z,4.28
2023-02-23T22:38:25.263Z,4.24
2023-02-23T22:41:29.784Z,4.40
2023-02-23T22:44:32.143Z,4.31
2023-02-23T22:47:35.463Z,4.34
2023-02-23T22:50:38.324Z,4.30
2023-02-23T22:53:40.913Z,4.38
2023-02-23T22:56:44.184Z,4.19
2023-02-23T22:59:54.832Z,4.00
2023-02-23T23:02:57.186Z,4.00
2023-02-23T23:06:03.750Z,4.24
2023-02-23T23:09:07.736Z,4.41
2023-02-23T23:12:12.170Z,4.45
2023-02-23T23:15:19.473Z,4.43
2023-02-23T23:18:24.677Z,4.24
2023-02-23T23:21:28.257Z,4.29
2023-02-23T23:24:30.732Z,4.24
2023-02-23T23:27:37.326Z,4.30
2023-02-23T23:30:45.788Z,4.16
2023-02-23T23:33:50.695Z,4.27
2023-02-23T23:36:53.538Z,4.26
2023-02-23T23:40:02.127Z,4.20
2023-02-23T23:43:07.638Z,4.23
2023-02-23T23:46:10.794Z,4.18
2023-02-23T23:49:16.156Z,4.18
2023-02-23T23:52:18.518Z,4.04
2023-02-23T23:55:20.859Z,4.18
2023-02-23T23:58:26.848Z,4.24
